sensor_id;sensor_type;location;lat;lon;timestamp;pressure;altitude;pressure_sealevel;temperature;humidity
75513;BME280;64090;49.770;18.760;2022-12-24T00:02:47;96569.10;;;4.93;90.00
75513;BME280;64090;49.770;18.760;2022-12-24T00:05:51;96565.05;;;4.93;89.75
75513;BME280;64090;49.770;18.760;2022-12-24T00:08:54;96569.23;;;4.93;89.82
75513;BME280;64090;49.770;18.760;2022-12-24T00:11:56;96569.63;;;4.94;90.02
75513;BME280;64090;49.770;18.760;2022-12-24T00:14:59;96562.27;;;4.99;89.82
75513;BME280;64090;49.770;18.760;2022-12-24T00:18:02;96556.84;;;5.03;89.52
75513;BME280;64090;49.770;18.760;2022-12-24T00:21:05;96548.34;;;5.05;89.45
75513;BME280;64090;49.770;18.760;2022-12-24T00:24:08;96541.61;;;5.07;89.37
75513;BME280;64090;49.770;18.760;2022-12-24T00:27:12;96539.50;;;5.07;89.29
75513;BME280;64090;49.770;18.760;2022-12-24T00:30:15;96536.99;;;5.06;89.46
75513;BME280;64090;49.770;18.760;2022-12-24T00:33:17;96527.79;;;5.04;89.57
75513;BME280;64090;49.770;18.760;2022-12-24T00:36:26;96529.38;;;5.07;89.68
75513;BME280;64090;49.770;18.760;2022-12-24T00:39:29;96528.66;;;5.13;89.88
75513;BME280;64090;49.770;18.760;2022-12-24T00:42:32;96524.45;;;5.22;89.87
75513;BME280;64090;49.770;18.760;2022-12-24T00:45:35;96525.10;;;5.27;89.52
75513;BME280;64090;49.770;18.760;2022-12-24T00:48:38;96523.64;;;5.32;89.78
75513;BME280;64090;49.770;18.760;2022-12-24T00:51:41;96522.12;;;5.38;89.44
75513;BME280;64090;49.770;18.760;2022-12-24T00:54:43;96514.70;;;5.44;89.15
75513;BME280;64090;49.770;18.760;2022-12-24T00:57:46;96516.30;;;5.49;89.03
75513;BME280;64090;49.770;18.760;2022-12-24T01:00:49;96516.95;;;5.52;88.99
75513;BME280;64090;49.770;18.760;2022-12-24T01:03:53;96521.53;;;5.53;89.17
75513;BME280;64090;49.770;18.760;2022-12-24T01:07:16;96525.31;;;5.54;89.16
75513;BME280;64090;49.770;18.760;2022-12-24T01:10:19;96527.79;;;5.52;89.27
75513;BME280;64090;49.770;18.760;2022-12-24T01:13:22;96528.52;;;5.52;89.31
75513;BME280;64090;49.770;18.760;2022-12-24T01:16:25;96533.30;;;5.53;89.17
75513;BME280;64090;49.770;18.760;2022-12-24T01:19:28;96530.18;;;5.53;89.23
75513;BME280;64090;49.770;18.760;2022-12-24T01:22:31;96525.88;;;5.53;89.32
75513;BME280;64090;49.770;18.760;2022-12-24T01:25:36;96534.16;;;5.53;89.11
75513;BME280;64090;49.770;18.760;2022-12-24T01:28:40;96531.88;;;5.52;89.15
75513;BME280;64090;49.770;18.760;2022-12-24T01:31:43;96544.16;;;5.53;89.91
75513;BME280;64090;49.770;18.760;2022-12-24T01:34:48;96547.70;;;5.57;89.49
75513;BME280;64090;49.770;18.760;2022-12-24T01:37:51;96545.67;;;5.62;89.69
75513;BME280;64090;49.770;18.760;2022-12-24T01:40:54;96538.45;;;5.64;90.05
75513;BME280;64090;49.770;18.760;2022-12-24T01:47:28;96528.42;;;5.78;91.50
75513;BME280;64090;49.770;18.760;2022-12-24T01:50:31;96527.67;;;5.85;90.34
75513;BME280;64090;49.770;18.760;2022-12-24T01:53:36;96525.89;;;5.89;90.28
75513;BME280;64090;49.770;18.760;2022-12-24T01:56:45;96525.33;;;5.88;90.46
75513;BME280;64090;49.770;18.760;2022-12-24T01:59:54;96521.76;;;5.87;90.42
75513;BME280;64090;49.770;18.760;2022-12-24T02:02:59;96521.55;;;5.91;90.66
75513;BME280;64090;49.770;18.760;2022-12-24T02:06:03;96526.79;;;5.97;90.91
75513;BME280;64090;49.770;18.760;2022-12-24T02:09:06;96528.70;;;6.00;91.26
75513;BME280;64090;49.770;18.760;2022-12-24T02:12:09;96527.67;;;6.04;90.60
75513;BME280;64090;49.770;18.760;2022-12-24T02:15:13;96529.03;;;6.12;90.70
75513;BME280;64090;49.770;18.760;2022-12-24T02:18:30;96535.14;;;6.21;90.87
75513;BME280;64090;49.770;18.760;2022-12-24T02:21:50;96536.36;;;6.26;90.23
75513;BME280;64090;49.770;18.760;2022-12-24T02:28:36;96539.41;;;6.35;89.71
75513;BME280;64090;49.770;18.760;2022-12-24T02:32:08;96544.14;;;6.35;89.81
75513;BME280;64090;49.770;18.760;2022-12-24T02:35:32;96540.54;;;6.36;89.92
75513;BME280;64090;49.770;18.760;2022-12-24T02:38:48;96536.42;;;6.35;89.70
75513;BME280;64090;49.770;18.760;2022-12-24T02:41:55;96543.95;;;6.37;89.78
75513;BME280;64090;49.770;18.760;2022-12-24T02:45:28;96562.70;;;6.40;90.34
75513;BME280;64090;49.770;18.760;2022-12-24T02:48:33;96572.83;;;6.48;90.06
75513;BME280;64090;49.770;18.760;2022-12-24T02:51:37;96570.79;;;6.50;89.91
75513;BME280;64090;49.770;18.760;2022-12-24T02:54:40;96579.80;;;6.54;90.35
75513;BME280;64090;49.770;18.760;2022-12-24T03:05:50;96610.66;;;6.66;90.17
75513;BME280;64090;49.770;18.760;2022-12-24T03:09:15;96610.54;;;6.70;89.87
75513;BME280;64090;49.770;18.760;2022-12-24T03:12:40;96605.98;;;6.71;90.08
75513;BME280;64090;49.770;18.760;2022-12-24T03:15:45;96610.48;;;6.73;89.77
75513;BME280;64090;49.770;18.760;2022-12-24T03:18:49;96619.60;;;6.69;89.97
75513;BME280;64090;49.770;18.760;2022-12-24T03:21:55;96619.11;;;6.66;90.06
75513;BME280;64090;49.770;18.760;2022-12-24T03:24:59;96622.32;;;6.66;90.21
75513;BME280;64090;49.770;18.760;2022-12-24T03:28:05;96622.27;;;6.67;90.63
75513;BME280;64090;49.770;18.760;2022-12-24T03:31:09;96627.73;;;6.70;90.65
75513;BME280;64090;49.770;18.760;2022-12-24T03:34:14;96623.27;;;6.73;90.73
75513;BME280;64090;49.770;18.760;2022-12-24T03:37:17;96616.20;;;6.76;90.79
75513;BME280;64090;49.770;18.760;2022-12-24T03:40:20;96622.73;;;6.80;90.37
75513;BME280;64090;49.770;18.760;2022-12-24T03:43:23;96628.33;;;6.82;90.37
75513;BME280;64090;49.770;18.760;2022-12-24T03:46:26;96635.02;;;6.83;90.42
75513;BME280;64090;49.770;18.760;2022-12-24T03:49:29;96637.02;;;6.84;90.62
75513;BME280;64090;49.770;18.760;2022-12-24T03:52:32;96639.27;;;6.82;90.57
75513;BME280;64090;49.770;18.760;2022-12-24T03:55:36;96642.08;;;6.80;91.06
75513;BME280;64090;49.770;18.760;2022-12-24T03:58:39;96637.28;;;6.77;91.46
75513;BME280;64090;49.770;18.760;2022-12-24T04:01:42;96645.01;;;6.77;91.40
75513;BME280;64090;49.770;18.760;2022-12-24T04:04:45;96648.70;;;6.78;90.89
75513;BME280;64090;49.770;18.760;2022-12-24T04:07:48;96652.60;;;6.78;91.08
75513;BME280;64090;49.770;18.760;2022-12-24T04:10:50;96645.72;;;6.79;90.86
75513;BME280;64090;49.770;18.760;2022-12-24T04:13:53;96647.55;;;6.84;90.76
75513;BME280;64090;49.770;18.760;2022-12-24T04:16:56;96645.80;;;6.84;90.68
75513;BME280;64090;49.770;18.760;2022-12-24T04:19:59;96644.02;;;6.83;90.62
75513;BME280;64090;49.770;18.760;2022-12-24T04:23:02;96640.23;;;6.81;90.78
75513;BME280;64090;49.770;18.760;2022-12-24T04:26:07;96657.95;;;6.81;90.45
75513;BME280;64090;49.770;18.760;2022-12-24T04:29:10;96652.56;;;6.78;90.51
75513;BME280;64090;49.770;18.760;2022-12-24T04:32:13;96655.77;;;6.77;90.62
75513;BME280;64090;49.770;18.760;2022-12-24T04:35:16;96655.60;;;6.79;90.82
75513;BME280;64090;49.770;18.760;2022-12-24T04:38:19;96655.05;;;6.83;90.73
75513;BME280;64090;49.770;18.760;2022-12-24T04:41:22;96659.59;;;6.88;90.67
75513;BME280;64090;49.770;18.760;2022-12-24T04:44:26;96662.02;;;6.91;90.49
75513;BME280;64090;49.770;18.760;2022-12-24T04:47:29;96667.88;;;6.92;90.27
75513;BME280;64090;49.770;18.760;2022-12-24T04:50:32;96673.19;;;6.93;90.24
75513;BME280;64090;49.770;18.760;2022-12-24T04:53:36;96675.91;;;6.96;90.28
75513;BME280;64090;49.770;18.760;2022-12-24T04:56:39;96673.74;;;6.99;90.31
75513;BME280;64090;49.770;18.760;2022-12-24T04:59:42;96675.64;;;7.02;90.24
75513;BME280;64090;49.770;18.760;2022-12-24T05:02:45;96673.53;;;7.02;90.15
75513;BME280;64090;49.770;18.760;2022-12-24T05:05:48;96675.02;;;7.03;90.02
75513;BME280;64090;49.770;18.760;2022-12-24T05:08:53;96682.02;;;7.05;90.47
75513;BME280;64090;49.770;18.760;2022-12-24T05:11:57;96673.75;;;7.09;90.25
75513;BME280;64090;49.770;18.760;2022-12-24T05:15:00;96675.10;;;7.07;90.46
75513;BME280;64090;49.770;18.760;2022-12-24T05:18:03;96674.21;;;7.07;90.36
75513;BME280;64090;49.770;18.760;2022-12-24T05:21:12;96677.11;;;7.11;90.37
75513;BME280;64090;49.770;18.760;2022-12-24T05:24:16;96686.96;;;7.18;90.39
75513;BME280;64090;49.770;18.760;2022-12-24T05:27:38;96691.13;;;7.22;90.28
75513;BME280;64090;49.770;18.760;2022-12-24T05:30:40;96691.44;;;7.20;90.45
75513;BME280;64090;49.770;18.760;2022-12-24T05:33:44;96691.88;;;7.21;90.14
75513;BME280;64090;49.770;18.760;2022-12-24T05:36:47;96696.30;;;7.22;90.12
75513;BME280;64090;49.770;18.760;2022-12-24T05:39:50;96699.67;;;7.23;90.09
75513;BME280;64090;49.770;18.760;2022-12-24T05:42:53;96701.52;;;7.21;89.98
75513;BME280;64090;49.770;18.760;2022-12-24T05:46:05;96703.98;;;7.22;89.93
75513;BME280;64090;49.770;18.760;2022-12-24T05:49:09;96708.41;;;7.22;89.91
75513;BME280;64090;49.770;18.760;2022-12-24T05:52:11;96708.44;;;7.17;89.53
75513;BME280;64090;49.770;18.760;2022-12-24T05:55:14;96708.92;;;7.07;89.41
75513;BME280;64090;49.770;18.760;2022-12-24T05:58:17;96714.69;;;6.95;89.42
75513;BME280;64090;49.770;18.760;2022-12-24T06:01:21;96717.14;;;6.87;89.84
75513;BME280;64090;49.770;18.760;2022-12-24T06:04:24;96714.47;;;6.85;89.86
75513;BME280;64090;49.770;18.760;2022-12-24T06:07:30;96721.82;;;6.88;90.17
75513;BME280;64090;49.770;18.760;2022-12-24T06:10:33;96722.27;;;6.87;89.94
75513;BME280;64090;49.770;18.760;2022-12-24T06:13:36;96731.92;;;6.90;89.93
75513;BME280;64090;49.770;18.760;2022-12-24T06:16:39;96740.88;;;6.89;89.88
75513;BME280;64090;49.770;18.760;2022-12-24T06:19:42;96739.50;;;6.85;89.71
75513;BME280;64090;49.770;18.760;2022-12-24T06:22:46;96744.68;;;6.79;89.75
75513;BME280;64090;49.770;18.760;2022-12-24T06:25:49;96750.61;;;6.77;89.63
75513;BME280;64090;49.770;18.760;2022-12-24T06:28:52;96753.52;;;6.79;89.83
75513;BME280;64090;49.770;18.760;2022-12-24T06:31:55;96753.98;;;6.82;89.89
75513;BME280;64090;49.770;18.760;2022-12-24T06:34:58;96758.96;;;6.88;89.83
75513;BME280;64090;49.770;18.760;2022-12-24T06:38:01;96761.64;;;6.93;89.62
75513;BME280;64090;49.770;18.760;2022-12-24T06:41:06;96762.81;;;6.95;89.86
75513;BME280;64090;49.770;18.760;2022-12-24T06:44:09;96768.23;;;7.02;89.59
75513;BME280;64090;49.770;18.760;2022-12-24T06:47:12;96768.89;;;7.06;89.30
75513;BME280;64090;49.770;18.760;2022-12-24T06:50:14;96769.94;;;7.09;89.14
75513;BME280;64090;49.770;18.760;2022-12-24T06:53:17;96774.90;;;7.10;88.88
75513;BME280;64090;49.770;18.760;2022-12-24T06:56:20;96777.12;;;7.13;88.58
75513;BME280;64090;49.770;18.760;2022-12-24T06:59:23;96780.08;;;7.15;88.56
75513;BME280;64090;49.770;18.760;2022-12-24T07:02:30;96782.15;;;7.16;88.34
75513;BME280;64090;49.770;18.760;2022-12-24T07:05:40;96792.30;;;7.23;88.11
75513;BME280;64090;49.770;18.760;2022-12-24T07:08:56;96796.79;;;7.26;87.85
75513;BME280;64090;49.770;18.760;2022-12-24T07:12:11;96796.64;;;7.28;88.07
75513;BME280;64090;49.770;18.760;2022-12-24T07:15:15;96801.71;;;7.30;87.95
75513;BME280;64090;49.770;18.760;2022-12-24T07:18:18;96799.77;;;7.33;87.95
75513;BME280;64090;49.770;18.760;2022-12-24T07:21:21;96808.75;;;7.35;87.92
75513;BME280;64090;49.770;18.760;2022-12-24T07:24:30;96810.29;;;7.37;87.71
75513;BME280;64090;49.770;18.760;2022-12-24T07:27:36;96821.31;;;7.37;87.47
75513;BME280;64090;49.770;18.760;2022-12-24T07:30:40;96823.55;;;7.40;87.35
75513;BME280;64090;49.770;18.760;2022-12-24T07:33:43;96822.35;;;7.41;86.96
75513;BME280;64090;49.770;18.760;2022-12-24T07:36:46;96823.65;;;7.45;87.00
75513;BME280;64090;49.770;18.760;2022-12-24T07:39:49;96829.81;;;7.50;86.83
75513;BME280;64090;49.770;18.760;2022-12-24T07:42:52;96832.70;;;7.49;86.60
75513;BME280;64090;49.770;18.760;2022-12-24T07:45:58;96836.52;;;7.53;86.29
75513;BME280;64090;49.770;18.760;2022-12-24T07:49:01;96844.19;;;7.59;86.57
75513;BME280;64090;49.770;18.760;2022-12-24T07:52:07;96845.35;;;7.61;85.94
75513;BME280;64090;49.770;18.760;2022-12-24T07:55:10;96844.13;;;7.69;86.23
75513;BME280;64090;49.770;18.760;2022-12-24T07:58:13;96847.92;;;7.77;86.26
75513;BME280;64090;49.770;18.760;2022-12-24T08:01:18;96846.05;;;7.85;85.81
75513;BME280;64090;49.770;18.760;2022-12-24T08:04:22;96842.85;;;7.90;85.18
75513;BME280;64090;49.770;18.760;2022-12-24T08:07:25;96849.02;;;7.92;85.07
75513;BME280;64090;49.770;18.760;2022-12-24T08:10:28;96853.67;;;8.01;85.12
75513;BME280;64090;49.770;18.760;2022-12-24T08:13:31;96854.84;;;8.01;84.40
75513;BME280;64090;49.770;18.760;2022-12-24T08:16:34;96863.36;;;8.01;84.48
75513;BME280;64090;49.770;18.760;2022-12-24T08:19:37;96864.55;;;8.07;84.45
75513;BME280;64090;49.770;18.760;2022-12-24T08:22:40;96868.47;;;8.09;83.99
75513;BME280;64090;49.770;18.760;2022-12-24T08:25:45;96877.80;;;8.07;83.91
75513;BME280;64090;49.770;18.760;2022-12-24T08:28:48;96879.30;;;8.10;83.50
75513;BME280;64090;49.770;18.760;2022-12-24T08:31:51;96884.09;;;8.11;83.49
75513;BME280;64090;49.770;18.760;2022-12-24T08:34:54;96892.06;;;8.13;83.41
75513;BME280;64090;49.770;18.760;2022-12-24T08:37:57;96901.58;;;8.14;83.20
75513;BME280;64090;49.770;18.760;2022-12-24T08:41:00;96905.92;;;8.17;82.90
75513;BME280;64090;49.770;18.760;2022-12-24T08:44:03;96910.69;;;8.30;82.57
75513;BME280;64090;49.770;18.760;2022-12-24T08:47:06;96909.99;;;8.38;82.42
75513;BME280;64090;49.770;18.760;2022-12-24T08:50:10;96918.62;;;8.46;82.28
75513;BME280;64090;49.770;18.760;2022-12-24T08:53:14;96926.45;;;8.51;81.91
75513;BME280;64090;49.770;18.760;2022-12-24T08:56:17;96917.23;;;8.47;81.98
75513;BME280;64090;49.770;18.760;2022-12-24T08:59:20;96930.30;;;8.45;81.84
75513;BME280;64090;49.770;18.760;2022-12-24T09:02:25;96944.46;;;8.40;81.67
75513;BME280;64090;49.770;18.760;2022-12-24T09:05:28;96946.34;;;8.36;81.55
75513;BME280;64090;49.770;18.760;2022-12-24T09:08:32;96950.64;;;8.33;81.14
75513;BME280;64090;49.770;18.760;2022-12-24T09:11:35;96953.73;;;8.24;80.94
75513;BME280;64090;49.770;18.760;2022-12-24T09:14:37;96953.23;;;8.27;81.27
75513;BME280;64090;49.770;18.760;2022-12-24T09:17:41;96950.61;;;8.42;80.80
75513;BME280;64090;49.770;18.760;2022-12-24T09:20:44;96956.52;;;8.52;80.59
75513;BME280;64090;49.770;18.760;2022-12-24T09:23:48;96946.91;;;8.59;80.32
75513;BME280;64090;49.770;18.760;2022-12-24T09:26:51;96951.67;;;8.60;80.15
75513;BME280;64090;49.770;18.760;2022-12-24T09:29:59;96958.04;;;8.50;80.07
75513;BME280;64090;49.770;18.760;2022-12-24T09:33:02;96957.94;;;8.53;80.12
75513;BME280;64090;49.770;18.760;2022-12-24T09:36:06;96958.10;;;8.62;79.89
75513;BME280;64090;49.770;18.760;2022-12-24T09:39:09;96961.81;;;8.69;79.56
75513;BME280;64090;49.770;18.760;2022-12-24T09:49:15;96961.61;;;8.75;79.38
75513;BME280;64090;49.770;18.760;2022-12-24T09:52:37;96969.02;;;8.90;79.27
75513;BME280;64090;49.770;18.760;2022-12-24T09:55:46;96974.41;;;9.04;78.48
75513;BME280;64090;49.770;18.760;2022-12-24T09:58:58;96972.22;;;9.09;78.40
75513;BME280;64090;49.770;18.760;2022-12-24T10:02:01;96970.65;;;9.12;77.52
75513;BME280;64090;49.770;18.760;2022-12-24T10:05:05;96976.88;;;9.14;77.20
75513;BME280;64090;49.770;18.760;2022-12-24T10:15:30;96991.45;;;9.16;77.72
75513;BME280;64090;49.770;18.760;2022-12-24T10:25:20;97013.35;;;8.84;77.55
75513;BME280;64090;49.770;18.760;2022-12-24T10:28:32;97020.18;;;8.71;77.98
75513;BME280;64090;49.770;18.760;2022-12-24T10:31:49;97019.89;;;8.65;78.22
75513;BME280;64090;49.770;18.760;2022-12-24T10:35:16;97022.42;;;8.60;78.32
75513;BME280;64090;49.770;18.760;2022-12-24T10:38:21;97029.48;;;8.58;78.33
75513;BME280;64090;49.770;18.760;2022-12-24T10:41:27;97030.05;;;8.67;77.81
75513;BME280;64090;49.770;18.760;2022-12-24T10:44:32;97032.46;;;8.71;78.08
75513;BME280;64090;49.770;18.760;2022-12-24T10:47:37;97038.39;;;8.73;77.69
75513;BME280;64090;49.770;18.760;2022-12-24T10:50:51;97038.23;;;8.74;77.56
75513;BME280;64090;49.770;18.760;2022-12-24T10:54:05;97033.90;;;8.76;77.24
75513;BME280;64090;49.770;18.760;2022-12-24T10:57:23;97046.20;;;8.78;77.32
75513;BME280;64090;49.770;18.760;2022-12-24T11:00:27;97052.74;;;8.82;76.82
75513;BME280;64090;49.770;18.760;2022-12-24T11:03:37;97054.17;;;8.82;76.81
75513;BME280;64090;49.770;18.760;2022-12-24T11:06:54;97054.55;;;8.82;76.48
75513;BME280;64090;49.770;18.760;2022-12-24T11:10:05;97049.83;;;8.86;76.35
75513;BME280;64090;49.770;18.760;2022-12-24T11:13:39;97056.80;;;9.04;76.09
75513;BME280;64090;49.770;18.760;2022-12-24T11:16:55;97060.29;;;9.08;76.04
75513;BME280;64090;49.770;18.760;2022-12-24T11:19:59;97059.41;;;9.05;76.00
75513;BME280;64090;49.770;18.760;2022-12-24T11:23:05;97057.09;;;9.03;75.55
75513;BME280;64090;49.770;18.760;2022-12-24T11:26:08;97064.40;;;8.98;75.69
75513;BME280;64090;49.770;18.760;2022-12-24T11:29:26;97063.73;;;8.94;76.00
75513;BME280;64090;49.770;18.760;2022-12-24T11:32:29;97075.69;;;8.95;76.46
75513;BME280;64090;49.770;18.760;2022-12-24T11:35:39;97079.57;;;8.91;76.29
75513;BME280;64090;49.770;18.760;2022-12-24T11:38:51;97087.02;;;8.86;76.47
75513;BME280;64090;49.770;18.760;2022-12-24T11:41:54;97091.02;;;8.82;76.53
75513;BME280;64090;49.770;18.760;2022-12-24T11:44:59;97089.23;;;8.82;76.65
75513;BME280;64090;49.770;18.760;2022-12-24T11:48:21;97088.30;;;8.99;76.21
75513;BME280;64090;49.770;18.760;2022-12-24T11:51:26;97097.29;;;9.08;76.11
75513;BME280;64090;49.770;18.760;2022-12-24T11:54:33;97106.67;;;9.14;75.83
75513;BME280;64090;49.770;18.760;2022-12-24T12:04:35;97115.10;;;8.90;76.14
75513;BME280;64090;49.770;18.760;2022-12-24T12:07:41;97116.23;;;8.92;76.25
75513;BME280;64090;49.770;18.760;2022-12-24T12:10:45;97117.15;;;8.97;75.65
75513;BME280;64090;49.770;18.760;2022-12-24T12:13:50;97124.00;;;8.97;75.45
75513;BME280;64090;49.770;18.760;2022-12-24T12:20:37;97132.52;;;8.71;75.95
75513;BME280;64090;49.770;18.760;2022-12-24T12:23:56;97136.83;;;8.65;76.08
75513;BME280;64090;49.770;18.760;2022-12-24T12:30:29;97143.61;;;8.59;76.12
75513;BME280;64090;49.770;18.760;2022-12-24T12:33:40;97154.30;;;8.55;76.22
75513;BME280;64090;49.770;18.760;2022-12-24T12:37:13;97160.54;;;8.47;76.62
75513;BME280;64090;49.770;18.760;2022-12-24T12:40:20;97165.42;;;8.52;76.39
75513;BME280;64090;49.770;18.760;2022-12-24T12:56:33;97192.65;;;8.44;76.62
75513;BME280;64090;49.770;18.760;2022-12-24T12:59:49;97197.50;;;8.43;76.24
75513;BME280;64090;49.770;18.760;2022-12-24T13:13:23;97226.45;;;8.36;76.17
75513;BME280;64090;49.770;18.760;2022-12-24T13:20:18;97240.95;;;8.25;76.39
75513;BME280;64090;49.770;18.760;2022-12-24T13:23:23;97244.85;;;8.22;76.50
75513;BME280;64090;49.770;18.760;2022-12-24T13:26:28;97244.80;;;8.17;76.83
75513;BME280;64090;49.770;18.760;2022-12-24T13:32:50;97256.77;;;8.10;77.32
75513;BME280;64090;49.770;18.760;2022-12-24T13:36:02;97258.56;;;8.10;76.95
75513;BME280;64090;49.770;18.760;2022-12-24T13:39:17;97269.71;;;8.05;77.18
75513;BME280;64090;49.770;18.760;2022-12-24T13:42:47;97276.75;;;7.99;77.44
75513;BME280;64090;49.770;18.760;2022-12-24T13:45:51;97276.34;;;7.97;77.52
75513;BME280;64090;49.770;18.760;2022-12-24T13:48:54;97280.43;;;7.94;77.49
75513;BME280;64090;49.770;18.760;2022-12-24T13:55:14;97288.56;;;7.89;77.91
75513;BME280;64090;49.770;18.760;2022-12-24T13:58:18;97295.29;;;7.88;77.58
75513;BME280;64090;49.770;18.760;2022-12-24T14:01:35;97297.29;;;7.91;77.80
75513;BME280;64090;49.770;18.760;2022-12-24T14:04:40;97299.36;;;7.91;77.27
75513;BME280;64090;49.770;18.760;2022-12-24T14:07:46;97300.59;;;7.93;77.06
75513;BME280;64090;49.770;18.760;2022-12-24T14:11:18;97310.16;;;7.94;77.04
75513;BME280;64090;49.770;18.760;2022-12-24T14:14:29;97322.05;;;7.92;77.27
75513;BME280;64090;49.770;18.760;2022-12-24T14:17:33;97324.61;;;7.92;77.09
75513;BME280;64090;49.770;18.760;2022-12-24T14:20:37;97332.67;;;7.90;77.48
75513;BME280;64090;49.770;18.760;2022-12-24T14:24:00;97336.76;;;7.86;77.46
75513;BME280;64090;49.770;18.760;2022-12-24T14:30:35;97343.84;;;7.74;77.96
75513;BME280;64090;49.770;18.760;2022-12-24T14:33:38;97350.27;;;7.73;78.24
75513;BME280;64090;49.770;18.760;2022-12-24T14:36:42;97353.32;;;7.75;77.85
75513;BME280;64090;49.770;18.760;2022-12-24T14:39:47;97358.52;;;7.72;77.98
75513;BME280;64090;49.770;18.760;2022-12-24T14:46:56;97367.85;;;7.61;78.63
75513;BME280;64090;49.770;18.760;2022-12-24T14:56:32;97396.65;;;7.30;81.11
75513;BME280;64090;49.770;18.760;2022-12-24T14:59:55;97404.77;;;7.23;81.41
75513;BME280;64090;49.770;18.760;2022-12-24T15:02:58;97411.60;;;7.17;81.66
75513;BME280;64090;49.770;18.760;2022-12-24T15:06:04;97418.95;;;7.12;82.58
75513;BME280;64090;49.770;18.760;2022-12-24T15:09:25;97423.39;;;7.06;82.46
75513;BME280;64090;49.770;18.760;2022-12-24T15:12:30;97432.34;;;7.03;81.75
75513;BME280;64090;49.770;18.760;2022-12-24T15:15:34;97436.30;;;7.00;82.25
75513;BME280;64090;49.770;18.760;2022-12-24T15:18:46;97444.70;;;6.98;82.21
75513;BME280;64090;49.770;18.760;2022-12-24T15:21:50;97446.79;;;6.95;82.49
75513;BME280;64090;49.770;18.760;2022-12-24T15:24:54;97452.97;;;6.92;82.34
75513;BME280;64090;49.770;18.760;2022-12-24T15:27:58;97458.25;;;6.92;81.95
75513;BME280;64090;49.770;18.760;2022-12-24T15:31:10;97459.32;;;6.97;82.36
75513;BME280;64090;49.770;18.760;2022-12-24T15:34:30;97463.39;;;7.01;82.38
75513;BME280;64090;49.770;18.760;2022-12-24T15:37:40;97471.04;;;7.03;82.18
75513;BME280;64090;49.770;18.760;2022-12-24T15:40:47;97471.30;;;7.03;81.88
75513;BME280;64090;49.770;18.760;2022-12-24T15:43:52;97474.88;;;7.05;81.83
75513;BME280;64090;49.770;18.760;2022-12-24T15:46:58;97474.83;;;7.03;81.83
75513;BME280;64090;49.770;18.760;2022-12-24T15:50:01;97474.52;;;7.00;82.32
75513;BME280;64090;49.770;18.760;2022-12-24T15:53:07;97473.65;;;6.90;82.48
75513;BME280;64090;49.770;18.760;2022-12-24T15:56:27;97474.27;;;6.75;82.34
75513;BME280;64090;49.770;18.760;2022-12-24T15:59:34;97472.45;;;6.58;82.67
75513;BME280;64090;49.770;18.760;2022-12-24T16:02:43;97473.09;;;6.45;82.55
75513;BME280;64090;49.770;18.760;2022-12-24T16:06:07;97474.56;;;6.36;82.92
75513;BME280;64090;49.770;18.760;2022-12-24T16:12:33;97474.89;;;6.23;83.21
75513;BME280;64090;49.770;18.760;2022-12-24T16:15:46;97481.56;;;6.16;83.17
75513;BME280;64090;49.770;18.760;2022-12-24T16:21:55;97492.77;;;5.93;83.09
75513;BME280;64090;49.770;18.760;2022-12-24T16:25:21;97500.28;;;5.84;83.64
75513;BME280;64090;49.770;18.760;2022-12-24T16:28:25;97505.92;;;5.79;84.02
75513;BME280;64090;49.770;18.760;2022-12-24T16:31:52;97507.92;;;5.77;83.96
75513;BME280;64090;49.770;18.760;2022-12-24T16:34:56;97512.65;;;5.78;84.23
75513;BME280;64090;49.770;18.760;2022-12-24T16:37:59;97516.44;;;5.80;83.93
75513;BME280;64090;49.770;18.760;2022-12-24T16:41:02;97515.41;;;5.84;83.68
75513;BME280;64090;49.770;18.760;2022-12-24T16:44:04;97515.52;;;5.89;83.84
75513;BME280;64090;49.770;18.760;2022-12-24T16:47:14;97525.01;;;5.91;83.96
75513;BME280;64090;49.770;18.760;2022-12-24T16:50:17;97527.88;;;5.90;84.37
75513;BME280;64090;49.770;18.760;2022-12-24T16:53:21;97530.45;;;5.91;83.85
75513;BME280;64090;49.770;18.760;2022-12-24T16:56:24;97532.55;;;5.97;83.53
75513;BME280;64090;49.770;18.760;2022-12-24T16:59:27;97535.23;;;6.01;83.68
75513;BME280;64090;49.770;18.760;2022-12-24T17:02:30;97530.49;;;6.04;83.63
75513;BME280;64090;49.770;18.760;2022-12-24T17:05:37;97540.84;;;6.05;83.50
75513;BME280;64090;49.770;18.760;2022-12-24T17:08:40;97538.58;;;6.07;83.08
75513;BME280;64090;49.770;18.760;2022-12-24T17:11:43;97539.50;;;6.08;83.03
75513;BME280;64090;49.770;18.760;2022-12-24T17:14:46;97539.77;;;6.07;83.26
75513;BME280;64090;49.770;18.760;2022-12-24T17:17:48;97541.45;;;6.06;83.12
75513;BME280;64090;49.770;18.760;2022-12-24T17:20:59;97540.84;;;6.06;82.89
75513;BME280;64090;49.770;18.760;2022-12-24T17:24:03;97540.25;;;6.02;82.93
75513;BME280;64090;49.770;18.760;2022-12-24T17:27:06;97546.20;;;5.97;82.82
75513;BME280;64090;49.770;18.760;2022-12-24T17:30:10;97550.31;;;5.94;82.84
75513;BME280;64090;49.770;18.760;2022-12-24T17:33:13;97555.36;;;5.88;82.81
75513;BME280;64090;49.770;18.760;2022-12-24T17:36:18;97557.58;;;5.80;82.84
75513;BME280;64090;49.770;18.760;2022-12-24T17:39:21;97560.56;;;5.68;82.93
75513;BME280;64090;49.770;18.760;2022-12-24T17:42:29;97556.69;;;5.54;82.94
75513;BME280;64090;49.770;18.760;2022-12-24T17:45:32;97563.98;;;5.46;83.11
75513;BME280;64090;49.770;18.760;2022-12-24T17:48:36;97562.63;;;5.37;83.07
75513;BME280;64090;49.770;18.760;2022-12-24T17:51:39;97569.96;;;5.33;83.48
75513;BME280;64090;49.770;18.760;2022-12-24T17:54:47;97578.88;;;5.31;83.46
75513;BME280;64090;49.770;18.760;2022-12-24T17:57:50;97584.73;;;5.27;83.63
75513;BME280;64090;49.770;18.760;2022-12-24T18:00:53;97588.27;;;5.24;83.68
75513;BME280;64090;49.770;18.760;2022-12-24T18:03:59;97594.28;;;5.17;84.12
75513;BME280;64090;49.770;18.760;2022-12-24T18:07:02;97596.59;;;5.12;83.66
75513;BME280;64090;49.770;18.760;2022-12-24T18:10:06;97601.86;;;5.06;83.40
75513;BME280;64090;49.770;18.760;2022-12-24T18:13:10;97606.02;;;4.99;83.60